Share

Sutton, WV

Frame Circle (KWVGASSA1) Elev 945 ft | 38.66 °N, 80.75 °W | Change Station

Current weather conditions updated 1 second ago

Clear
Clear
64.5 °F
Feels Like 64.5 °F
N
1.0
Wind Variable Wind from SW
Gusts 7.0 mph
Sunrise 6:43 AM
Sunset 8:01 PM
Moon Waning Gibbous

Tomorrow is forecast to be Cooler than today.

Pressure 30.39 in
Visibility 10.0 miles
Clouds Clear
Dew Point 25 °F
Humidity 22%
Rainfall 0.00 in
Snow Depth Not available.
UV 1 out of 16
Pollen 9.20 out of 12
Air Quality Not available.
Flu Activity Sporadic
METAR KEKN 172251Z AUTO 14014G20KT 10SM CLR 16/M06 A3035 RMK AO2 SLP290 T01561056 TSNO

More Conditions Fewer Conditions

Pressure 30.39 in
Visibility 10.0 miles
Clouds Clear
Dew Point 25 °F
Humidity 22%
Rainfall 0.00 in
Snow Depth Not available.
UV 1 out of 16
Pollen 9.20 out of 12
Air Quality Not available.
Flu Activity Sporadic
METAR KEKN 172251Z AUTO 14014G20KT 10SM CLR 16/M06 A3035 RMK AO2 SLP290 T01561056 TSNO

More Conditions Fewer Conditions

10-Day Forecast

Almanac

Astronomy

Apr. 17, 2014 Rise Set
Actual Time 6:43 AM EDT 8:01 PM EDT
Civil Twilight 6:15 AM EDT 8:28 PM EDT
Nautical Twilight 5:42 AM EDT 9:02 PM EDT
Astronomical Twilight 5:08 AM EDT 9:36 PM EDT
Moon 10:44 PM EDT 8:15 AM EDT
Length of Visible Light 14h 12m
Length of Day
13h 17m
Tomorrow will be 2m 21s longer.
Waning Gibbous, 92% of the Moon is Illuminated
Today
Waning Gibbous
Apr 22
Last Quarter
Apr 29
New
May 6
First Quarter
May 14
Full

Today's Extremes

State Highs State Lows

Community

  • Morning Light
    Morning Light
  • New Day
    New Day
  • Lake Michigan Sunrise
    Lake Michigan Sunrise
  • sunset from izmir, narlıdere
    sunset from izmir, narlıdere
  • oregon cherry
    oregon cherry

WunderPhotos

Upload Photos

1,702,176 photos uploaded!

WunderBlogs® & News

Nearby

Snow Depth

Station Depth Elevation
No new snow has been reported.

Coastal Water Temperatures

Place Temperature
No Stations Reporting

Earthquake Activity

City Distance Mag. Time & Date
No recent earthquake activity has been reported nearby.
Minimum magnitude displayed is 2.5.

Nearby Weather Stations

Station Location Temp. Dew Point Humidity Wind Precip. Elev Updated Type
RAWS FLATWOODS WV, Sutton, WV 70 °F 15 °F 12% SW  at  5 mph 0.00 in / hr 1267 ft 6:17 PM EDT MADIS
Frame Circle, Gassaway, WV 64.5 °F 25 °F 22% SW  at  1.0 mph 0.00 in / hr 945 ft 7:41 PM EDT Rapid Fire
Webster Springs, Webster Springs, WV 58.4 °F 25 °F 27% WNW  at  3.0 mph 0.00 in / hr 1683 ft 7:38 PM EDT Normal
Brooklyn Point, Glenville, WV 64.2 °F 37 °F 36% SW  at  0.0 mph - / hr 820 ft 6:38 PM CDT Normal
French Creek - Rock Cave, Rock Cave, WV 62.1 °F 20 °F 20% ESE  at  3.0 mph 0.00 in / hr 1837 ft 7:41 PM EDT Rapid Fire

Show More Stations Show Fewer Stations

What do you think?

We're not finished. Please let us know what you like, what you don't like, and what you are still missing.